Time;durP1;ratioP1;P1;durP2;ratioP2;P2;SDS_P1;SDS_P2;PMS_P1;PMS_P2;Temp;Humidity;BMP_temperature;BMP_pressure;BME280_temperature;BME280_humidity;BME280_pressure;Samples;Min_cycle;Max_cycle;Signal;HPM_P1;HPM_P2
2023/11/08 00:00:22;;;;;;;3.87;3.57;;;9.80;99.90;;;;;;5053836;28;20214;-68
2023/11/08 00:02:48;;;;;;;5.60;3.60;;;9.70;99.90;;;;;;5054273;28;20163;-69
2023/11/08 00:05:14;;;;;;;4.60;4.20;;;9.80;99.90;;;;;;5053866;28;20191;-69
2023/11/08 00:07:41;;;;;;;5.73;3.60;;;9.80;99.90;;;;;;5053991;28;20166;-68
2023/11/08 00:10:09;;;;;;;4.20;3.50;;;9.80;99.90;;;;;;5053427;28;20175;-69
2023/11/08 00:12:35;;;;;;;4.10;3.60;;;9.80;99.90;;;;;;5054757;28;20182;-69
2023/11/08 00:15:01;;;;;;;5.00;4.03;;;9.80;99.90;;;;;;5036372;28;20746;-69
2023/11/08 00:17:27;;;;;;;3.40;3.10;;;9.80;99.90;;;;;;5053785;28;20636;-69
2023/11/08 00:19:54;;;;;;;3.90;3.60;;;9.80;99.90;;;;;;5053793;28;20175;-69
2023/11/08 00:22:20;;;;;;;5.53;3.40;;;9.80;99.90;;;;;;5053606;28;20260;-69
2023/11/08 00:24:46;;;;;;;3.93;3.30;;;9.80;99.90;;;;;;5054050;28;20225;-68
2023/11/08 00:27:11;;;;;;;6.77;3.80;;;9.80;99.90;;;;;;5053394;28;20198;-68
2023/11/08 00:29:37;;;;;;;8.57;3.93;;;9.90;99.90;;;;;;5053789;28;20317;-70
2023/11/08 00:32:03;;;;;;;6.57;3.67;;;9.90;99.90;;;;;;5053734;28;20253;-68
2023/11/08 00:34:29;;;;;;;6.63;3.50;;;9.90;99.90;;;;;;5035645;28;20534;-69
2023/11/08 00:36:56;;;;;;;5.60;3.40;;;9.90;99.90;;;;;;5053477;28;20654;-71
2023/11/08 00:39:22;;;;;;;4.73;4.00;;;9.90;99.90;;;;;;5053417;28;20173;-70
2023/11/08 00:41:48;;;;;;;4.93;3.33;;;9.90;99.90;;;;;;5053454;28;20206;-69
2023/11/08 00:44:14;;;;;;;4.77;3.43;;;9.90;99.90;;;;;;5053474;28;20213;-69
2023/11/08 00:46:40;;;;;;;6.30;3.33;;;10.00;99.90;;;;;;5053468;28;20206;-69
2023/11/08 00:49:07;;;;;;;6.23;3.40;;;9.90;99.90;;;;;;5053168;28;20582;-69
2023/11/08 00:51:32;;;;;;;5.67;3.63;;;9.90;99.90;;;;;;5053244;28;20171;-68
2023/11/08 00:54:00;;;;;;;6.33;3.60;;;9.90;99.90;;;;;;5053151;28;20640;-69
2023/11/08 00:56:26;;;;;;;4.43;3.20;;;10.00;99.90;;;;;;5052480;28;20243;-69
2023/11/08 00:58:52;;;;;;;4.03;3.43;;;10.00;99.90;;;;;;5053072;28;20171;-69
2023/11/08 01:01:17;;;;;;;4.30;3.50;;;10.00;99.90;;;;;;5052752;28;20205;-68
2023/11/08 01:03:43;;;;;;;3.70;3.40;;;10.00;99.90;;;;;;5053238;28;20250;-68
2023/11/08 01:06:09;;;;;;;6.87;3.77;;;10.00;99.90;;;;;;5053015;28;20183;-69
2023/11/08 01:08:34;;;;;;;4.00;3.17;;;10.00;99.90;;;;;;5052121;28;20543;-69
2023/11/08 01:11:00;;;;;;;4.20;3.80;;;10.00;99.90;;;;;;5052818;28;20179;-69
2023/11/08 01:13:25;;;;;;;3.90;3.50;;;10.00;99.90;;;;;;5035123;28;20640;-69
2023/11/08 01:15:51;;;;;;;7.50;3.97;;;10.00;99.90;;;;;;5053051;28;20282;-68
2023/11/08 01:18:17;;;;;;;8.47;4.30;;;10.00;99.90;;;;;;5053508;28;20167;-68
2023/11/08 01:20:42;;;;;;;8.47;3.60;;;9.90;99.90;;;;;;5052592;28;20234;-69
2023/11/08 01:23:09;;;;;;;5.00;3.30;;;9.90;99.90;;;;;;5052589;28;20173;-70
2023/11/08 01:25:35;;;;;;;4.30;3.83;;;10.00;99.90;;;;;;5052735;28;20183;-69
2023/11/08 01:28:01;;;;;;;5.20;3.80;;;10.00;99.90;;;;;;5052471;28;20175;-69
2023/11/08 01:30:27;;;;;;;5.67;3.50;;;10.00;99.90;;;;;;5052226;28;20179;-69
2023/11/08 01:32:54;;;;;;;3.67;3.37;;;10.00;99.90;;;;;;5034681;28;20177;-71
2023/11/08 01:35:20;;;;;;;3.93;3.53;;;10.00;99.90;;;;;;5052378;28;20194;-69
2023/11/08 01:37:45;;;;;;;11.57;4.20;;;10.00;99.90;;;;;;5052189;28;20175;-70
2023/11/08 01:40:11;;;;;;;3.40;3.20;;;10.00;99.90;;;;;;5052140;28;20202;-69
2023/11/08 01:42:37;;;;;;;12.50;4.40;;;10.00;99.90;;;;;;5052442;28;20209;-69
2023/11/08 01:45:04;;;;;;;5.77;3.70;;;9.90;99.90;;;;;;5052022;28;20202;-69
2023/11/08 01:47:33;;;;;;;4.30;3.80;;;10.00;99.90;;;;;;5052124;28;20202;-69
2023/11/08 01:49:59;;;;;;;3.60;3.30;;;10.00;99.90;;;;;;5051998;28;20209;-69
2023/11/08 01:52:25;;;;;;;5.27;3.70;;;10.00;99.90;;;;;;5051941;28;20202;-71
2023/11/08 01:54:51;;;;;;;6.00;3.77;;;10.00;99.90;;;;;;5033782;28;20217;-69
2023/11/08 01:57:17;;;;;;;4.23;3.50;;;10.00;99.90;;;;;;5051458;28;20171;-69
2023/11/08 01:59:45;;;;;;;3.67;3.47;;;10.00;99.90;;;;;;5052087;28;20174;-69
2023/11/08 02:02:11;;;;;;;4.27;3.63;;;10.00;99.90;;;;;;5052035;28;20210;-70
2023/11/08 02:04:37;;;;;;;4.07;3.20;;;10.00;99.90;;;;;;5051580;28;20178;-68
2023/11/08 02:07:02;;;;;;;5.63;3.77;;;10.00;99.90;;;;;;5051440;28;20163;-68
2023/11/08 02:09:31;;;;;;;5.63;3.20;;;9.90;99.90;;;;;;5051448;28;20171;-69
2023/11/08 02:12:00;;;;;;;4.13;3.57;;;9.90;99.90;;;;;;5051868;28;20249;-69
2023/11/08 02:14:27;;;;;;;7.47;3.83;;;9.90;99.90;;;;;;5051482;28;20166;-69
2023/11/08 02:16:53;;;;;;;4.87;3.60;;;9.90;99.90;;;;;;5033730;28;20273;-69
2023/11/08 02:19:19;;;;;;;4.67;3.30;;;9.90;99.90;;;;;;5051332;28;20556;-69
2023/11/08 02:21:44;;;;;;;4.77;3.50;;;9.90;99.90;;;;;;5050643;28;20206;-70
2023/11/08 02:24:23;;;;;;;3.63;3.30;;;9.90;99.90;;;;;;5051527;28;20166;-69
2023/11/08 02:26:49;;;;;;;3.77;3.33;;;9.90;99.90;;;;;;5051294;28;20249;-68
2023/11/08 02:29:17;;;;;;;4.37;3.20;;;9.90;99.90;;;;;;5051076;28;20171;-68
2023/11/08 02:31:44;;;;;;;3.83;3.23;;;9.90;99.90;;;;;;5051481;28;20210;-68
2023/11/08 02:34:09;;;;;;;5.07;3.60;;;9.90;99.90;;;;;;5051630;28;20170;-69
2023/11/08 02:36:36;;;;;;;3.20;3.00;;;9.90;99.90;;;;;;5051005;28;20260;-68
2023/11/08 02:39:06;;;;;;;6.00;3.70;;;9.90;99.90;;;;;;5050984;28;20178;-68
2023/11/08 02:41:32;;;;;;;4.53;3.63;;;9.90;99.90;;;;;;5051038;28;20201;-69
2023/11/08 02:43:57;;;;;;;5.63;3.30;;;9.90;99.90;;;;;;5051314;28;20171;-68
2023/11/08 02:46:23;;;;;;;4.27;3.83;;;9.90;99.90;;;;;;5050792;28;20211;-68
2023/11/08 02:48:49;;;;;;;4.47;3.63;;;9.90;99.90;;;;;;5051000;28;20187;-68
2023/11/08 02:51:15;;;;;;;4.80;3.70;;;9.90;99.90;;;;;;5051074;28;20174;-69
2023/11/08 02:53:40;;;;;;;4.33;3.80;;;9.90;99.90;;;;;;5051016;28;20193;-69
2023/11/08 02:56:07;;;;;;;5.07;3.87;;;9.90;99.90;;;;;;5050553;28;20198;-69
2023/11/08 02:58:32;;;;;;;5.27;3.57;;;9.90;99.90;;;;;;5050940;28;20646;-69
2023/11/08 03:00:58;;;;;;;4.90;3.67;;;9.90;99.90;;;;;;5051027;28;20225;-68
2023/11/08 03:03:24;;;;;;;6.77;3.40;;;9.90;99.90;;;;;;5050302;28;20183;-68
2023/11/08 03:05:50;;;;;;;3.67;3.10;;;9.80;99.90;;;;;;5050873;28;20190;-68
2023/11/08 03:08:16;;;;;;;7.97;3.60;;;9.80;99.90;;;;;;5050670;28;20553;-68
2023/11/08 03:10:41;;;;;;;8.40;3.40;;;9.80;99.90;;;;;;5050709;28;20520;-68
2023/11/08 03:13:07;;;;;;;3.97;3.60;;;9.80;99.90;;;;;;5050772;28;20268;-68
2023/11/08 03:15:32;;;;;;;3.47;3.17;;;9.80;99.90;;;;;;5050854;28;20195;-69
2023/11/08 03:17:58;;;;;;;4.00;3.70;;;9.80;99.90;;;;;;5050977;28;20225;-68
2023/11/08 03:20:24;;;;;;;3.80;3.50;;;9.80;99.90;;;;;;5050730;28;20652;-68
2023/11/08 03:22:49;;;;;;;7.03;3.67;;;9.80;99.90;;;;;;5051224;28;20179;-69
2023/11/08 03:25:16;;;;;;;4.23;3.73;;;9.70;99.90;;;;;;5051127;28;20682;-68
2023/11/08 03:27:43;;;;;;;5.13;3.27;;;9.60;99.90;;;;;;5050874;28;20226;-68
2023/11/08 03:30:14;;;;;;;3.73;3.43;;;9.50;99.90;;;;;;5050897;28;20232;-70
2023/11/08 03:32:41;;;;;;;6.67;3.57;;;9.40;99.90;;;;;;5053147;28;20179;-68
2023/11/08 03:35:07;;;;;;;3.53;3.33;;;9.30;99.90;;;;;;5053542;28;20199;-67
2023/11/08 03:37:36;;;;;;;3.80;3.50;;;9.20;99.90;;;;;;5054798;28;20214;-69
2023/11/08 03:40:05;;;;;;;3.50;3.20;;;9.10;99.90;;;;;;5054952;28;20186;-68
2023/11/08 03:42:34;;;;;;;4.93;3.70;;;9.00;99.90;;;;;;5054746;28;20205;-68
2023/11/08 03:47:27;;;;;;;3.70;3.40;;;8.90;99.90;;;;;;5052816;28;20210;-74
2023/11/08 03:49:54;;;;;;;6.03;3.63;;;8.90;99.90;;;;;;5054893;28;20167;-72
2023/11/08 03:52:20;;;;;;;4.87;3.60;;;8.80;99.90;;;;;;5054690;28;20175;-73
2023/11/08 03:54:46;;;;;;;7.77;4.13;;;8.70;99.90;;;;;;5054051;28;20182;-71
2023/11/08 03:57:11;;;;;;;9.03;3.70;;;8.70;99.90;;;;;;5054258;28;20543;-71
2023/11/08 03:59:37;;;;;;;4.77;3.73;;;8.60;99.90;;;;;;5054172;28;20179;-71
2023/11/08 04:02:02;;;;;;;4.07;3.70;;;8.60;99.90;;;;;;5053837;28;20300;-71
2023/11/08 04:04:28;;;;;;;5.23;3.50;;;8.60;99.90;;;;;;5054318;28;20173;-72
2023/11/08 04:06:53;;;;;;;6.73;3.53;;;8.50;99.90;;;;;;5054043;28;20202;-71
2023/11/08 04:09:19;;;;;;;4.13;3.73;;;8.50;99.90;;;;;;5054197;28;20163;-71
2023/11/08 04:11:45;;;;;;;5.97;3.73;;;8.40;99.90;;;;;;5053966;28;20240;-71
2023/11/08 04:14:10;;;;;;;4.60;3.77;;;8.30;99.90;;;;;;5054339;28;20183;-72
2023/11/08 04:16:39;;;;;;;6.73;3.93;;;8.30;99.90;;;;;;5053770;28;20230;-71
2023/11/08 04:19:06;;;;;;;6.23;3.80;;;8.30;99.90;;;;;;5054263;28;20175;-71
2023/11/08 04:21:31;;;;;;;4.10;3.87;;;8.30;99.90;;;;;;5053931;28;20195;-71
2023/11/08 04:23:57;;;;;;;4.10;3.80;;;8.20;99.90;;;;;;5054151;28;20219;-71
2023/11/08 04:26:23;;;;;;;5.30;3.87;;;8.20;99.90;;;;;;5053824;28;20208;-72
2023/11/08 04:28:48;;;;;;;5.23;4.07;;;8.20;99.90;;;;;;5053839;28;20218;-71
2023/11/08 04:31:14;;;;;;;6.20;4.00;;;8.20;99.90;;;;;;5053648;28;20760;-72
2023/11/08 04:33:40;;;;;;;4.70;4.40;;;8.20;99.90;;;;;;5053868;28;20262;-71
2023/11/08 04:36:08;;;;;;;6.97;3.67;;;8.20;99.90;;;;;;5053743;28;20194;-72
2023/11/08 04:38:35;;;;;;;4.40;3.90;;;8.20;99.90;;;;;;5053831;28;20182;-71
2023/11/08 04:41:02;;;;;;;3.77;3.47;;;8.20;99.90;;;;;;5053416;28;20198;-72
2023/11/08 04:43:29;;;;;;;4.93;3.93;;;8.20;99.90;;;;;;5052516;28;20553;-72
2023/11/08 04:45:54;;;;;;;5.77;3.97;;;8.20;99.90;;;;;;5053409;28;20577;-72
2023/11/08 04:48:20;;;;;;;4.20;3.90;;;8.10;99.90;;;;;;5053405;28;20269;-72
2023/11/08 04:50:46;;;;;;;5.03;4.30;;;8.10;99.90;;;;;;5053426;28;20187;-71
2023/11/08 04:53:13;;;;;;;4.50;4.10;;;8.20;99.90;;;;;;5053252;28;20193;-71
2023/11/08 04:55:38;;;;;;;4.80;4.10;;;8.10;99.90;;;;;;5052786;28;20219;-73
2023/11/08 04:58:04;;;;;;;4.40;4.00;;;8.10;99.90;;;;;;5053409;28;20214;-71
2023/11/08 05:00:29;;;;;;;4.30;4.00;;;8.10;99.90;;;;;;5052634;28;20235;-71
2023/11/08 05:02:55;;;;;;;4.47;4.00;;;8.20;99.90;;;;;;5053315;28;20186;-71
2023/11/08 05:05:21;;;;;;;6.50;4.67;;;8.10;99.90;;;;;;5053355;28;20278;-72
2023/11/08 05:07:47;;;;;;;5.40;4.57;;;8.10;99.90;;;;;;5052539;28;20273;-72
2023/11/08 05:10:13;;;;;;;8.87;4.23;;;8.10;99.90;;;;;;5053261;28;20245;-70
2023/11/08 05:12:39;;;;;;;5.53;4.60;;;8.10;99.90;;;;;;5053224;28;20187;-71
2023/11/08 05:15:08;;;;;;;4.63;4.20;;;8.10;99.90;;;;;;5052560;28;20712;-71
2023/11/08 05:17:38;;;;;;;6.57;4.30;;;8.10;99.90;;;;;;5052440;28;20183;-71
2023/11/08 05:20:05;;;;;;;7.27;4.50;;;8.00;99.90;;;;;;5053171;28;20174;-71
2023/11/08 05:22:32;;;;;;;7.50;5.10;;;8.00;99.90;;;;;;5052841;28;20573;-72
2023/11/08 05:25:00;;;;;;;9.13;4.40;;;7.90;99.90;;;;;;5053030;28;20171;-71
2023/11/08 05:27:26;;;;;;;5.47;4.10;;;7.90;99.90;;;;;;5052425;28;20183;-71
2023/11/08 05:29:51;;;;;;;8.37;4.80;;;7.80;99.90;;;;;;5052349;28;20265;-72
2023/11/08 05:32:20;;;;;;;7.43;4.60;;;7.80;99.90;;;;;;5053061;28;20708;-71
2023/11/08 05:34:46;;;;;;;6.53;4.90;;;7.70;99.90;;;;;;5052643;28;20651;-71
2023/11/08 05:37:12;;;;;;;7.30;5.23;;;7.70;99.90;;;;;;5052441;28;20189;-71
2023/11/08 05:39:38;;;;;;;5.53;4.40;;;7.70;99.90;;;;;;5052401;28;20266;-72
2023/11/08 05:42:03;;;;;;;7.93;4.87;;;7.60;99.90;;;;;;5052401;28;20207;-73
2023/11/08 05:44:30;;;;;;;7.80;4.83;;;7.60;99.90;;;;;;5052609;28;20198;-72
2023/11/08 05:46:56;;;;;;;6.43;4.50;;;7.60;99.90;;;;;;5052019;28;20237;-71
2023/11/08 05:49:22;;;;;;;8.03;5.33;;;7.60;99.90;;;;;;5052326;28;20171;-71
2023/11/08 05:51:47;;;;;;;6.93;4.50;;;7.60;99.90;;;;;;5052369;28;20174;-73
2023/11/08 05:54:13;;;;;;;5.57;4.47;;;7.60;99.90;;;;;;5052437;28;20214;-71
2023/11/08 05:56:38;;;;;;;10.60;5.33;;;7.60;99.90;;;;;;5051782;28;20206;-72
2023/11/08 05:59:06;;;;;;;7.67;4.90;;;7.60;99.90;;;;;;5052509;28;20701;-71
2023/11/08 06:01:31;;;;;;;6.67;4.60;;;7.60;99.90;;;;;;5051131;28;20341;-71
2023/11/08 06:03:57;;;;;;;5.97;4.10;;;7.60;99.90;;;;;;5052558;28;20254;-71
2023/11/08 06:06:23;;;;;;;10.43;4.23;;;7.60;99.90;;;;;;5051951;28;20201;-72
2023/11/08 06:08:48;;;;;;;6.00;4.40;;;7.60;99.90;;;;;;5052186;28;20182;-71
2023/11/08 06:11:16;;;;;;;6.17;5.00;;;7.50;99.90;;;;;;5052082;28;20639;-71
2023/11/08 06:13:43;;;;;;;11.40;4.93;;;7.50;99.90;;;;;;5051894;28;20186;-70
2023/11/08 06:16:09;;;;;;;13.03;5.13;;;7.50;99.90;;;;;;5051722;28;20209;-71
2023/11/08 06:18:35;;;;;;;7.53;4.90;;;7.50;99.90;;;;;;5051983;28;20180;-71
2023/11/08 06:21:01;;;;;;;7.57;5.07;;;7.50;99.90;;;;;;5051941;28;20749;-72
2023/11/08 06:23:27;;;;;;;6.33;4.33;;;7.50;99.90;;;;;;5051587;28;20240;-72
2023/11/08 06:25:52;;;;;;;11.10;5.33;;;7.50;99.90;;;;;;5051560;28;20199;-72
2023/11/08 06:28:18;;;;;;;5.50;4.70;;;7.60;99.90;;;;;;5051860;28;20213;-71
2023/11/08 06:30:44;;;;;;;8.63;5.00;;;7.60;99.90;;;;;;5051304;28;20174;-71
2023/11/08 06:33:09;;;;;;;9.27;4.87;;;7.70;99.90;;;;;;5051434;28;20171;-72
2023/11/08 06:35:37;;;;;;;5.07;4.60;;;7.70;99.90;;;;;;5050900;28;20202;-72
2023/11/08 06:38:03;;;;;;;5.03;4.57;;;7.80;99.90;;;;;;5051183;28;20655;-72
2023/11/08 06:40:29;;;;;;;8.47;5.33;;;7.80;99.90;;;;;;5050994;28;20175;-72
2023/11/08 06:42:55;;;;;;;5.53;4.80;;;7.90;99.90;;;;;;5051518;28;20266;-72
2023/11/08 06:45:21;;;;;;;5.53;4.63;;;8.00;99.90;;;;;;5050741;28;20191;-72
2023/11/08 06:47:46;;;;;;;6.60;4.83;;;8.10;99.90;;;;;;5050738;28;20175;-73
2023/11/08 06:50:12;;;;;;;10.63;4.10;;;8.20;99.90;;;;;;5051177;28;20675;-72
2023/11/08 06:52:38;;;;;;;5.03;4.57;;;8.20;99.90;;;;;;5051153;28;20190;-72
2023/11/08 06:55:05;;;;;;;9.03;4.60;;;8.30;99.90;;;;;;5050767;28;20609;-71
2023/11/08 06:57:31;;;;;;;5.63;4.47;;;8.40;99.90;;;;;;5049810;28;20221;-73
2023/11/08 07:00:00;;;;;;;7.43;4.50;;;8.40;99.90;;;;;;5050576;28;20193;-72
2023/11/08 07:02:26;;;;;;;13.13;4.60;;;8.50;99.90;;;;;;5050759;28;20195;-71
2023/11/08 07:04:52;;;;;;;5.17;3.90;;;8.60;99.90;;;;;;5050604;28;20193;-72
2023/11/08 07:07:18;;;;;;;5.33;4.13;;;8.70;99.90;;;;;;5051447;28;20175;-71
2023/11/08 07:09:48;;;;;;;5.20;4.00;;;8.80;99.90;;;;;;5048792;28;20212;-72
2023/11/08 07:12:14;;;;;;;4.27;3.97;;;8.90;99.90;;;;;;5050248;28;20269;-71
2023/11/08 07:14:40;;;;;;;5.97;4.10;;;9.00;99.90;;;;;;5050566;28;20258;-71
2023/11/08 07:17:06;;;;;;;6.17;4.37;;;9.10;99.90;;;;;;5050362;28;20278;-72
2023/11/08 07:19:32;;;;;;;9.50;4.73;;;9.10;99.90;;;;;;5049944;28;20178;-72
2023/11/08 07:21:57;;;;;;;4.60;3.80;;;9.20;99.90;;;;;;5050339;28;20217;-71
2023/11/08 07:24:23;;;;;;;7.17;4.77;;;9.30;99.90;;;;;;5050584;28;20171;-71
2023/11/08 07:26:51;;;;;;;7.50;4.30;;;9.40;99.90;;;;;;5049772;28;20260;-71
2023/11/08 07:29:16;;;;;;;9.07;4.30;;;9.40;99.90;;;;;;5050066;28;20265;-72
2023/11/08 07:31:42;;;;;;;4.80;3.90;;;9.50;99.90;;;;;;5050316;28;20257;-71
2023/11/08 07:34:08;;;;;;;6.23;3.97;;;9.60;99.90;;;;;;5050475;28;20179;-72
2023/11/08 07:36:33;;;;;;;6.30;3.70;;;9.70;99.90;;;;;;5050258;28;20190;-71
2023/11/08 07:39:06;;;;;;;4.83;3.80;;;9.80;99.90;;;;;;5050565;28;20229;-71
2023/11/08 07:41:33;;;;;;;4.70;3.57;;;9.90;99.90;;;;;;5050061;28;20570;-71
2023/11/08 07:43:58;;;;;;;4.87;3.93;;;9.90;99.90;;;;;;5050240;28;20194;-71
2023/11/08 07:46:27;;;;;;;8.53;4.00;;;10.00;99.90;;;;;;5050119;28;20207;-72
2023/11/08 07:48:55;;;;;;;8.23;3.90;;;10.10;99.90;;;;;;5050115;28;20224;-71
2023/11/08 07:51:22;;;;;;;5.20;3.70;;;10.10;99.90;;;;;;5050209;28;20171;-72
2023/11/08 07:53:49;;;;;;;6.03;3.57;;;10.10;99.90;;;;;;5049727;28;20568;-72
2023/11/08 07:56:15;;;;;;;6.00;4.07;;;10.10;99.90;;;;;;5049963;28;20210;-71
2023/11/08 07:58:41;;;;;;;7.47;3.63;;;10.10;99.90;;;;;;5050173;28;20207;-71
2023/11/08 08:01:09;;;;;;;5.10;3.27;;;10.10;99.90;;;;;;5050127;28;20516;-72
2023/11/08 08:03:35;;;;;;;6.43;3.40;;;10.10;99.90;;;;;;5049182;28;20321;-72
2023/11/08 08:06:03;;;;;;;5.53;3.70;;;10.00;99.90;;;;;;5050066;28;20183;-72
2023/11/08 08:08:30;;;;;;;3.47;3.17;;;9.90;99.90;;;;;;5050239;28;20194;-71
2023/11/08 08:10:55;;;;;;;7.80;3.60;;;9.90;99.90;;;;;;5049966;28;20175;-71
2023/11/08 08:13:21;;;;;;;3.63;3.20;;;10.00;99.90;;;;;;5048781;28;20194;-71
2023/11/08 08:15:48;;;;;;;4.60;3.27;;;10.20;99.90;;;;;;5049665;28;20209;-71
2023/11/08 08:18:14;;;;;;;5.43;3.37;;;10.60;99.90;;;;;;5049744;28;20175;-71
2023/11/08 08:20:39;;;;;;;7.10;3.07;;;11.00;99.90;;;;;;5052656;28;20212;-71
2023/11/08 08:23:09;;;;;;;4.80;3.17;;;11.50;99.90;;;;;;5053533;28;20275;-72
2023/11/08 08:25:39;;;;;;;5.40;2.77;;;11.90;99.90;;;;;;5053061;28;20205;-71
2023/11/08 08:28:05;;;;;;;5.17;3.37;;;12.30;99.90;;;;;;5052769;28;20175;-70
2023/11/08 08:30:31;;;;;;;3.87;2.97;;;12.50;99.90;;;;;;5053235;28;20228;-71
2023/11/08 08:33:01;;;;;;;4.83;2.70;;;12.70;99.90;;;;;;5053097;28;20585;-72
2023/11/08 08:35:28;;;;;;;3.50;2.73;;;13.00;99.90;;;;;;5053199;28;20217;-71
2023/11/08 08:37:54;;;;;;;5.50;2.70;;;13.30;99.90;;;;;;5052887;28;20186;-71
2023/11/08 08:40:19;;;;;;;3.13;2.70;;;13.50;99.90;;;;;;5053336;28;20171;-71
2023/11/08 08:42:45;;;;;;;7.03;2.60;;;13.60;99.90;;;;;;5052687;28;20694;-71
2023/11/08 08:45:11;;;;;;;5.50;2.60;;;13.70;99.90;;;;;;5052646;28;20195;-71
2023/11/08 08:47:37;;;;;;;4.47;2.80;;;14.00;99.90;;;;;;5052692;28;20175;-72
2023/11/08 08:50:05;;;;;;;3.13;2.33;;;14.30;99.90;;;;;;5051612;28;20556;-72
2023/11/08 08:52:31;;;;;;;5.40;2.97;;;14.40;99.90;;;;;;5053180;28;20248;-71
2023/11/08 08:54:57;;;;;;;6.53;2.60;;;14.30;99.90;;;;;;5052759;28;20632;-71
2023/11/08 08:57:23;;;;;;;6.50;3.37;;;14.20;99.90;;;;;;5052513;28;20220;-72
2023/11/08 08:59:49;;;;;;;5.23;2.87;;;13.90;99.90;;;;;;5052737;28;20175;-71
2023/11/08 09:02:15;;;;;;;3.53;2.80;;;13.60;99.90;;;;;;5052565;28;20205;-72
2023/11/08 09:04:41;;;;;;;5.03;2.93;;;13.30;99.90;;;;;;5052708;28;20178;-71
2023/11/08 09:07:06;;;;;;;6.53;3.17;;;12.90;99.90;;;;;;5052126;28;20212;-72
2023/11/08 09:09:32;;;;;;;4.77;3.13;;;12.70;99.90;;;;;;5052604;28;20217;-72
2023/11/08 09:11:58;;;;;;;3.97;2.90;;;12.50;99.90;;;;;;5052341;28;20284;-72
2023/11/08 09:14:23;;;;;;;4.87;3.07;;;12.50;99.90;;;;;;5034627;28;20186;-71
2023/11/08 09:16:49;;;;;;;7.23;3.30;;;12.40;99.90;;;;;;5052054;28;20252;-71
2023/11/08 09:19:15;;;;;;;4.77;2.83;;;12.20;99.90;;;;;;5052685;28;20605;-72
2023/11/08 09:21:42;;;;;;;7.50;3.27;;;12.10;99.90;;;;;;5051860;28;20325;-71
2023/11/08 09:24:08;;;;;;;5.60;3.20;;;12.00;99.90;;;;;;5052296;28;20520;-72
2023/11/08 09:26:35;;;;;;;5.03;3.50;;;11.90;99.90;;;;;;5051999;28;20191;-73
2023/11/08 09:29:00;;;;;;;4.63;3.17;;;11.90;99.90;;;;;;5052110;28;20181;-71
2023/11/08 09:31:26;;;;;;;5.23;2.90;;;11.80;99.90;;;;;;5051419;28;20345;-73
2023/11/08 09:33:56;;;;;;;5.53;3.30;;;11.90;99.90;;;;;;5051967;28;20626;-71
2023/11/08 09:36:24;;;;;;;9.23;3.50;;;11.90;99.90;;;;;;5051952;28;20293;-72
2023/11/08 09:38:50;;;;;;;7.23;3.30;;;11.90;99.90;;;;;;5052080;28;20185;-72
2023/11/08 09:41:17;;;;;;;5.07;3.43;;;11.90;99.90;;;;;;5051816;28;20290;-71
2023/11/08 09:43:44;;;;;;;3.83;2.60;;;11.90;99.90;;;;;;5051847;28;20625;-72
2023/11/08 09:46:10;;;;;;;6.43;3.33;;;12.00;99.90;;;;;;5051973;28;20568;-72
2023/11/08 09:48:36;;;;;;;4.17;2.77;;;12.00;99.90;;;;;;5052054;28;20189;-71
2023/11/08 09:51:02;;;;;;;6.43;3.03;;;12.00;99.90;;;;;;5033794;28;20269;-71
2023/11/08 09:53:29;;;;;;;3.57;2.97;;;12.10;99.90;;;;;;5033928;28;20179;-71
2023/11/08 09:55:57;;;;;;;6.70;3.13;;;12.20;99.90;;;;;;5051701;28;20298;-71
2023/11/08 09:58:23;;;;;;;7.67;3.20;;;12.30;99.90;;;;;;5051710;28;20581;-72
2023/11/08 10:00:55;;;;;;;9.27;3.43;;;12.50;99.90;;;;;;5051359;28;20187;-72
2023/11/08 10:03:25;;;;;;;4.93;3.10;;;12.50;99.90;;;;;;5051675;28;20262;-73
2023/11/08 10:05:52;;;;;;;4.53;3.33;;;12.60;99.90;;;;;;5049352;28;20735;-72
2023/11/08 10:08:18;;;;;;;6.27;3.30;;;12.60;99.90;;;;;;5051314;28;20174;-71
2023/11/08 10:10:48;;;;;;;6.23;3.20;;;12.70;99.90;;;;;;5051061;28;20226;-72
2023/11/08 10:13:15;;;;;;;3.53;3.03;;;12.70;99.90;;;;;;5051376;28;20194;-72
2023/11/08 10:15:41;;;;;;;4.93;2.90;;;12.70;99.90;;;;;;5050815;28;20577;-73
2023/11/08 10:18:08;;;;;;;6.90;3.03;;;12.80;99.90;;;;;;5050737;28;20193;-71
2023/11/08 10:20:37;;;;;;;5.70;3.30;;;12.90;99.90;;;;;;5051218;28;20177;-72
2023/11/08 10:23:07;;;;;;;6.50;4.27;;;13.00;99.90;;;;;;5031511;28;20278;-71
2023/11/08 10:25:33;;;;;;;4.20;3.20;;;13.10;99.90;;;;;;5031109;28;20204;-72
2023/11/08 10:28:07;;;;;;;4.73;3.00;;;13.20;99.90;;;;;;5031057;28;20186;-72
2023/11/08 10:30:38;;;;;;;7.33;3.40;;;13.30;99.90;;;;;;5031216;28;20171;-73
2023/11/08 10:33:14;;;;;;;5.23;2.90;;;13.30;99.90;;;;;;5031083;28;20180;-72
2023/11/08 10:35:41;;;;;;;5.27;2.80;;;13.40;99.90;;;;;;5031081;28;20260;-73
2023/11/08 10:38:10;;;;;;;3.53;2.83;;;13.40;99.90;;;;;;5030729;28;20191;-73
2023/11/08 10:40:36;;;;;;;3.47;2.83;;;13.40;99.90;;;;;;5034221;28;20551;-73
2023/11/08 10:43:04;;;;;;;6.10;3.30;;;13.40;99.90;;;;;;5050056;28;20587;-73
2023/11/08 10:45:32;;;;;;;5.27;3.00;;;13.50;99.90;;;;;;5050679;28;20213;-72
2023/11/08 10:47:58;;;;;;;3.93;3.27;;;13.50;99.90;;;;;;5050771;28;20639;-72
2023/11/08 10:50:25;;;;;;;4.73;3.03;;;13.50;99.90;;;;;;5050505;28;20266;-72
2023/11/08 10:52:52;;;;;;;7.03;3.73;;;13.50;99.90;;;;;;5050843;28;20259;-71
2023/11/08 10:55:19;;;;;;;7.63;3.57;;;13.40;99.90;;;;;;5050621;28;20210;-72
2023/11/08 10:57:52;;;;;;;3.47;3.07;;;13.40;99.90;;;;;;5050463;28;20517;-73
2023/11/08 11:00:21;;;;;;;3.97;3.47;;;13.50;99.90;;;;;;5050406;28;20183;-72
2023/11/08 11:02:57;;;;;;;4.17;3.30;;;13.50;99.90;;;;;;5050424;28;20210;-71
2023/11/08 11:05:24;;;;;;;4.13;3.00;;;13.60;99.90;;;;;;5050566;28;20240;-74
2023/11/08 11:07:52;;;;;;;5.33;3.20;;;13.70;99.90;;;;;;5051354;28;20181;-73
2023/11/08 11:10:19;;;;;;;4.33;3.00;;;13.70;99.90;;;;;;5054598;28;20233;-74
2023/11/08 11:12:56;;;;;;;3.77;3.03;;;13.60;99.90;;;;;;5052249;28;20179;-74
2023/11/08 11:15:31;;;;;;;3.83;3.10;;;13.50;99.90;;;;;;5051026;28;20190;-74
2023/11/08 11:17:59;;;;;;;4.13;3.07;;;13.30;99.90;;;;;;5050303;28;20549;-74
2023/11/08 11:20:32;;;;;;;4.67;3.27;;;13.20;99.90;;;;;;5051225;28;20233;-73
2023/11/08 11:22:58;;;;;;;6.90;3.10;;;13.20;99.90;;;;;;5050946;28;20194;-75
2023/11/08 11:25:50;;;;;;;4.20;3.10;;;13.20;99.90;;;;;;5050699;28;20187;-75
2023/11/08 11:28:52;;;;;;;6.17;3.23;;;13.20;99.90;;;;;;5050215;28;20171;-74
2023/11/08 11:31:33;;;;;;;3.70;3.10;;;13.20;99.90;;;;;;5051176;28;20166;-74
2023/11/08 11:34:20;;;;;;;3.53;3.17;;;13.20;99.90;;;;;;5050755;28;20666;-73
2023/11/08 11:37:10;;;;;;;7.70;2.97;;;13.20;99.90;;;;;;5050767;28;20581;-73
2023/11/08 11:39:45;;;;;;;2.97;2.70;;;13.30;99.90;;;;;;5051237;28;20175;-74
2023/11/08 11:42:25;;;;;;;7.80;3.20;;;13.60;99.90;;;;;;5050817;28;20519;-74
2023/11/08 11:44:54;;;;;;;2.90;2.57;;;13.80;99.90;;;;;;5051037;28;20183;-74
2023/11/08 11:47:22;;;;;;;3.27;2.97;;;13.80;99.90;;;;;;5050551;28;20261;-74
2023/11/08 11:49:52;;;;;;;4.20;2.73;;;13.80;99.90;;;;;;5051279;28;20171;-74
2023/11/08 11:52:19;;;;;;;6.97;2.90;;;13.80;99.90;;;;;;5050759;28;20179;-73
2023/11/08 11:54:46;;;;;;;5.37;2.77;;;13.80;99.90;;;;;;5054652;28;20186;-73
2023/11/08 11:57:13;;;;;;;6.43;2.90;;;13.90;99.90;;;;;;5054541;28;20171;-74
2023/11/08 11:59:39;;;;;;;2.80;2.57;;;13.90;99.90;;;;;;5054425;28;20178;-73
2023/11/08 12:02:05;;;;;;;4.13;2.73;;;14.20;99.90;;;;;;5054563;28;20198;-74
2023/11/08 12:04:30;;;;;;;2.93;2.57;;;14.50;99.90;;;;;;5054682;28;20587;-74
2023/11/08 12:06:56;;;;;;;5.97;3.10;;;14.70;99.90;;;;;;5053993;28;20274;-74
2023/11/08 12:09:23;;;;;;;3.43;3.13;;;14.70;99.90;;;;;;5054579;28;20171;-74
2023/11/08 12:11:50;;;;;;;4.20;2.60;;;14.80;99.90;;;;;;5054390;28;20170;-74
2023/11/08 12:14:21;;;;;;;6.47;2.80;;;15.00;99.90;;;;;;5054406;28;20250;-73
2023/11/08 12:16:48;;;;;;;3.27;2.40;;;15.20;99.90;;;;;;5053622;28;20226;-73
2023/11/08 12:19:16;;;;;;;3.03;2.57;;;15.30;99.90;;;;;;5054296;28;20217;-74
2023/11/08 12:21:45;;;;;;;3.90;2.53;;;15.40;99.90;;;;;;5053984;28;20224;-74
2023/11/08 12:24:12;;;;;;;4.23;2.60;;;15.60;99.90;;;;;;5053442;28;20174;-73
2023/11/08 12:26:38;;;;;;;4.23;2.53;;;15.70;99.90;;;;;;5053734;28;20724;-72
2023/11/08 12:29:06;;;;;;;6.97;2.40;;;15.70;99.90;;;;;;5053968;28;20265;-75
2023/11/08 12:31:31;;;;;;;6.50;2.83;;;15.70;99.90;;;;;;5054284;28;20175;-73
2023/11/08 12:33:58;;;;;;;2.30;2.10;;;15.50;99.90;;;;;;5053972;28;20190;-74
2023/11/08 12:36:24;;;;;;;2.97;2.70;;;15.20;99.90;;;;;;5053857;28;20198;-72
2023/11/08 12:38:50;;;;;;;4.33;2.70;;;15.10;99.90;;;;;;5053606;28;20175;-75
2023/11/08 12:41:17;;;;;;;3.47;2.80;;;15.00;99.90;;;;;;5053747;28;20336;-74
2023/11/08 12:43:59;;;;;;;5.83;2.70;;;14.80;99.90;;;;;;5053543;28;20185;-74
2023/11/08 12:46:24;;;;;;;5.47;2.47;;;14.80;99.90;;;;;;5053462;28;20198;-72
2023/11/08 12:48:57;;;;;;;4.87;2.80;;;14.80;99.90;;;;;;5053888;28;20536;-71
2023/11/08 12:51:31;;;;;;;2.60;2.40;;;14.70;99.90;;;;;;5051708;28;20265;-71
2023/11/08 12:54:00;;;;;;;6.07;2.70;;;14.40;99.90;;;;;;5052737;28;20529;-73